Time;durP1;ratioP1;P1;durP2;ratioP2;P2;SDS_P1;SDS_P2;PMS_P1;PMS_P2;Temp;Humidity;BMP_temperature;BMP_pressure;BME280_temperature;BME280_humidity;BME280_pressure;Samples;Min_cycle;Max_cycle;Signal;HPM_P1;HPM_P2
2023/03/29 00:01:59;;;;;;;;;;;7.30;99.90;;;;;;5000356;28;19913;-90
2023/03/29 00:04:28;;;;;;;;;;;7.20;99.90;;;;;;5011585;28;19913;-90
2023/03/29 00:06:54;;;;;;;;;;;7.20;99.90;;;;;;5012187;28;19995;-89
2023/03/29 00:09:32;;;;;;;;;;;7.20;99.90;;;;;;4990575;28;19918;-92
2023/03/29 00:12:00;;;;;;;;;;;7.20;99.90;;;;;;5017590;28;19916;-92
2023/03/29 00:14:29;;;;;;;;;;;7.20;99.90;;;;;;5010813;28;19937;-92
2023/03/29 00:17:16;;;;;;;;;;;7.20;99.90;;;;;;5013590;28;19910;-92
2023/03/29 00:19:42;;;;;;;;;;;7.20;99.90;;;;;;5018336;28;20331;-92
2023/03/29 00:22:14;;;;;;;;;;;7.20;99.90;;;;;;5018664;28;19909;-91
2023/03/29 00:24:52;;;;;;;;;;;;;;;;;;;;;
2023/03/29 00:27:24;;;;;;;;;;;7.20;99.90;;;;;;5023759;28;19917;-92
2023/03/29 00:36:18;;;;;;;;;;;7.20;99.90;;;;;;5019346;28;20381;-93
2023/03/29 00:45:11;;;;;;;;;;;7.30;99.90;;;;;;5021523;28;19924;-91
2023/03/29 00:47:47;;;;;;;;;;;7.10;99.90;;;;;;5001596;28;20014;-91
2023/03/29 00:50:40;;;;;;;;;;;7.20;99.90;;;;;;5009731;28;19967;-90
2023/03/29 00:53:25;;;;;;;;;;;7.10;99.90;;;;;;5015387;28;19913;-91
2023/03/29 00:56:14;;;;;;;;;;;7.10;99.90;;;;;;5019575;28;19940;-90
2023/03/29 01:02:04;;;;;;;;;;;7.20;99.90;;;;;;5037497;28;20011;-94
2023/03/29 01:04:58;;;;;;;;;;;7.20;99.90;;;;;;5019370;28;19921;-92
2023/03/29 01:07:57;;;;;;;;;;;;;;;;;;;;;
2023/03/29 01:10:43;;;;;;;;;;;7.20;99.90;;;;;;5032445;28;19915;-92
2023/03/29 01:13:19;;;;;;;;;;;7.10;99.90;;;;;;5014980;28;19909;-91
2023/03/29 01:15:45;;;;;;;;;;;7.20;99.90;;;;;;5014189;28;19910;-92
2023/03/29 01:18:11;;;;;;;;;;;7.20;99.90;;;;;;5018828;28;20022;-92
2023/03/29 01:21:15;;;;;;;;;;;7.10;99.90;;;;;;5017001;28;19918;-92
2023/03/29 01:23:47;;;;;;;;;;;7.20;99.90;;;;;;4914099;29;20461;-92
2023/03/29 01:26:18;;;;;;;;;;;7.10;99.90;;;;;;4921287;29;19925;-92
2023/03/29 01:28:46;;;;;;;;;;;7.20;99.90;;;;;;4926769;29;19911;-92
2023/03/29 01:31:24;;;;;;;;;;;7.20;99.90;;;;;;4937275;29;20285;-92
2023/03/29 01:34:21;;;;;;;;;;;7.20;99.90;;;;;;4936057;29;19930;-89
2023/03/29 01:39:51;;;;;;;;;;;7.20;99.90;;;;;;5015643;28;19917;-89
2023/03/29 01:42:35;;;;;;;;;;;7.20;99.90;;;;;;4998562;28;19960;-89
2023/03/29 01:45:20;;;;;;;;;;;7.20;99.90;;;;;;5017592;28;19917;-89
2023/03/29 01:47:52;;;;;;;;;;;7.10;99.90;;;;;;5009966;28;19917;-89
2023/03/29 01:50:36;;;;;;;;;;;7.30;99.90;;;;;;5018516;28;19910;-91
2023/03/29 01:53:05;;;;;;;;;;;7.30;99.90;;;;;;5014848;28;20313;-92
2023/03/29 01:56:00;;;;;;;;;;;7.30;99.90;;;;;;5005735;28;19909;-91
2023/03/29 01:58:28;;;;;;;;;;;7.30;99.90;;;;;;5010187;28;19913;-92
2023/03/29 02:01:03;;;;;;;;;;;7.30;99.90;;;;;;5014678;28;19948;-92
2023/03/29 02:03:32;;;;;;;;;;;7.40;99.90;;;;;;5000432;28;19910;-92
2023/03/29 02:06:04;;;;;;;;;;;7.40;99.90;;;;;;5011114;28;19917;-89
2023/03/29 02:08:32;;;;;;;;;;;7.40;99.90;;;;;;5003689;28;19909;-89
2023/03/29 02:11:00;;;;;;;;;;;7.40;99.90;;;;;;5009721;28;19948;-89
2023/03/29 02:13:26;;;;;;;;;;;7.50;99.90;;;;;;5003868;28;19916;-88
2023/03/29 02:15:55;;;;;;;;;;;7.50;99.90;;;;;;5004425;28;19917;-89
2023/03/29 02:18:21;;;;;;;;;;;7.50;99.90;;;;;;4988159;28;19913;-89
2023/03/29 02:20:48;;;;;;;;;;;7.50;99.90;;;;;;5013873;28;19944;-89
2023/03/29 02:23:17;;;;;;;;;;;7.50;99.90;;;;;;5016187;28;20265;-89
2023/03/29 02:25:49;;;;;;;;;;;7.50;99.90;;;;;;5005215;28;19917;-89
2023/03/29 02:28:16;;;;;;;;;;;7.50;99.90;;;;;;5008783;28;19978;-89
2023/03/29 02:31:04;;;;;;;;;;;7.50;99.90;;;;;;5013008;28;19909;-88
2023/03/29 02:33:53;;;;;;;;;;;7.50;99.90;;;;;;5016357;28;19956;-88
2023/03/29 02:36:27;;;;;;;;;;;7.60;99.90;;;;;;5012959;28;19909;-89
2023/03/29 02:39:06;;;;;;;;;;;7.60;99.90;;;;;;5016814;28;20352;-91
2023/03/29 02:41:36;;;;;;;;;;;7.60;99.90;;;;;;5013842;28;19975;-91
2023/03/29 02:44:09;;;;;;;;;;;7.60;99.90;;;;;;5013372;28;19909;-89
2023/03/29 02:46:37;;;;;;;;;;;7.50;99.90;;;;;;5009888;28;20378;-89
2023/03/29 02:52:09;;;;;;;;;;;7.60;99.90;;;;;;5021893;28;19963;-89
2023/03/29 02:54:41;;;;;;;;;;;7.50;99.90;;;;;;5008635;28;19910;-89
2023/03/29 02:57:25;;;;;;;;;;;7.50;99.90;;;;;;5014940;28;19936;-93
2023/03/29 03:00:11;;;;;;;;;;;7.40;99.90;;;;;;5034960;28;19893;-93
2023/03/29 03:05:40;;;;;;;;;;;7.40;99.90;;;;;;5042955;23;19932;-95
2023/03/29 03:08:06;;;;;;;;;;;7.40;99.90;;;;;;4990843;28;19926;-95
2023/03/29 03:10:37;;;;;;;;;;;7.40;99.90;;;;;;5017397;28;19910;-96
2023/03/29 03:13:05;;;;;;;;;;;7.40;99.90;;;;;;5026682;28;19909;-95
2023/03/29 03:15:34;;;;;;;;;;;7.40;99.90;;;;;;5006420;28;19952;-96
2023/03/29 03:18:02;;;;;;;;;;;7.40;99.90;;;;;;5015892;28;19941;-96
2023/03/29 03:20:30;;;;;;;;;;;7.40;99.90;;;;;;5012787;28;19956;-96
2023/03/29 03:23:03;;;;;;;;;;;7.40;99.90;;;;;;5001528;28;20491;-96
2023/03/29 03:25:29;;;;;;;;;;;7.50;99.90;;;;;;5009554;28;19917;-95
2023/03/29 03:27:54;;;;;;;;;;;7.50;99.90;;;;;;5022563;28;19913;-95
2023/03/29 03:30:20;;;;;;;;;;;7.50;99.90;;;;;;5020282;28;19964;-96
2023/03/29 03:32:46;;;;;;;;;;;7.50;99.90;;;;;;5010043;28;19964;-94
2023/03/29 03:35:12;;;;;;;;;;;7.50;99.90;;;;;;4988392;28;19921;-95
2023/03/29 03:37:38;;;;;;;;;;;7.50;99.90;;;;;;5017775;28;20319;-96
2023/03/29 03:40:05;;;;;;;;;;;7.50;99.90;;;;;;5010664;28;20249;-96
2023/03/29 03:42:34;;;;;;;;;;;7.50;99.90;;;;;;5009301;28;19926;-96
2023/03/29 03:45:07;;;;;;;;;;;7.50;99.90;;;;;;5008813;28;19920;-95
2023/03/29 03:47:33;;;;;;;;;;;7.50;99.90;;;;;;5019998;28;19913;-95
2023/03/29 03:49:59;;;;;;;;;;;7.50;99.90;;;;;;5001834;28;19917;-95
2023/03/29 03:52:25;;;;;;;;;;;7.50;99.90;;;;;;5034415;28;19920;-96
2023/03/29 03:54:50;;;;;;;;;;;7.50;99.90;;;;;;5007890;28;19909;-96
2023/03/29 03:57:21;;;;;;;;;;;7.50;99.90;;;;;;5038838;28;19909;-94
2023/03/29 03:59:47;;;;;;;;;;;7.50;99.90;;;;;;5015478;28;19910;-95
2023/03/29 04:02:16;;;;;;;;;;;7.50;99.90;;;;;;5017332;28;19913;-96
2023/03/29 04:04:42;;;;;;;;;;;7.50;99.90;;;;;;5016848;28;19964;-95
2023/03/29 04:07:10;;;;;;;;;;;7.60;99.90;;;;;;5012189;28;19925;-96
2023/03/29 04:09:36;;;;;;;;;;;7.60;99.90;;;;;;5037313;28;19910;-95
2023/03/29 04:12:04;;;;;;;;;;;7.60;99.90;;;;;;5017929;28;19915;-96
2023/03/29 04:14:31;;;;;;;;;;;7.60;99.90;;;;;;4995104;28;20007;-95
2023/03/29 04:16:56;;;;;;;;;;;7.60;99.90;;;;;;5012744;28;19909;-94
2023/03/29 04:19:22;;;;;;;;;;;7.50;99.90;;;;;;5014972;28;19945;-95
2023/03/29 04:21:48;;;;;;;;;;;7.50;99.90;;;;;;5006093;28;20004;-96
2023/03/29 04:24:14;;;;;;;;;;;7.50;99.90;;;;;;5004372;28;20004;-95
2023/03/29 04:26:40;;;;;;;;;;;7.50;99.90;;;;;;5013644;28;20080;-96
2023/03/29 04:29:08;;;;;;;;;;;7.50;99.90;;;;;;5013078;28;20352;-95
2023/03/29 04:31:33;;;;;;;;;;;7.50;99.90;;;;;;5030391;28;19916;-96
2023/03/29 04:33:59;;;;;;;;;;;7.50;99.90;;;;;;5017581;28;19910;-94
2023/03/29 04:36:25;;;;;;;;;;;7.50;99.90;;;;;;5011215;28;20000;-95
2023/03/29 04:38:53;;;;;;;;;;;7.60;99.90;;;;;;5034465;28;20268;-96
2023/03/29 04:41:21;;;;;;;;;;;7.60;99.90;;;;;;5017491;28;19918;-96
2023/03/29 04:43:47;;;;;;;;;;;7.60;99.90;;;;;;5009195;28;20401;-95
2023/03/29 04:46:13;;;;;;;;;;;7.50;99.90;;;;;;5010462;28;19945;-95
2023/03/29 04:48:41;;;;;;;;;;;7.70;99.90;;;;;;5014098;28;19921;-94
2023/03/29 04:51:06;;;;;;;;;;;7.60;99.90;;;;;;5024307;28;20000;-95
2023/03/29 04:53:32;;;;;;;;;;;7.60;99.90;;;;;;5011303;28;19948;-95
2023/03/29 04:56:01;;;;;;;;;;;7.70;99.90;;;;;;5016881;28;19945;-96
2023/03/29 04:58:26;;;;;;;;;;;7.70;99.90;;;;;;5012810;28;19909;-95
2023/03/29 05:00:58;;;;;;;;;;;7.70;99.90;;;;;;5012910;28;19916;-95
2023/03/29 05:03:49;;;;;;;;;;;7.80;99.90;;;;;;5007250;28;19917;-94
2023/03/29 05:06:15;;;;;;;;;;;7.70;99.90;;;;;;4993840;28;19929;-94
2023/03/29 05:08:41;;;;;;;;;;;7.70;99.90;;;;;;4994367;28;19920;-94
2023/03/29 05:11:10;;;;;;;;;;;7.70;99.90;;;;;;5001524;28;19953;-93
2023/03/29 05:13:41;;;;;;;;;;;7.60;99.90;;;;;;5002740;28;19910;-92
2023/03/29 05:16:09;;;;;;;;;;;7.80;99.90;;;;;;4991345;28;19914;-96
2023/03/29 05:18:35;;;;;;;;;;;7.80;99.90;;;;;;5006015;28;20029;-94
2023/03/29 05:21:03;;;;;;;;;;;7.80;99.90;;;;;;4999974;28;19932;-95
2023/03/29 05:23:29;;;;;;;;;;;7.80;99.90;;;;;;5015634;28;19995;-93
2023/03/29 05:25:55;;;;;;;;;;;7.90;99.90;;;;;;4983186;28;20030;-95
2023/03/29 05:28:23;;;;;;;;;;;7.90;99.90;;;;;;4993675;28;19910;-94
2023/03/29 05:31:09;;;;;;;;;;;7.90;99.90;;;;;;4997252;28;19924;-94
2023/03/29 05:33:35;;;;;;;;;;;7.90;99.90;;;;;;5015253;28;20357;-95
2023/03/29 05:36:05;;;;;;;;;;;7.90;99.90;;;;;;4995028;28;19993;-95
2023/03/29 05:38:36;;;;;;;;;;;7.90;99.90;;;;;;4983273;28;19910;-95
2023/03/29 05:41:02;;;;;;;;;;;7.90;99.90;;;;;;5020423;28;19909;-96
2023/03/29 05:43:28;;;;;;;;;;;8.00;99.90;;;;;;4999291;28;20375;-95
2023/03/29 05:45:54;;;;;;;;;;;8.00;99.90;;;;;;4990294;28;20355;-96
2023/03/29 05:48:21;;;;;;;;;;;8.00;99.90;;;;;;5000774;28;19909;-95
2023/03/29 05:50:51;;;;;;;;;;;8.00;99.90;;;;;;4996901;28;19948;-96
2023/03/29 05:53:17;;;;;;;;;;;8.10;99.90;;;;;;4992069;28;20282;-94
2023/03/29 05:55:42;;;;;;;;;;;8.10;99.90;;;;;;4993919;28;19910;-94
2023/03/29 05:58:09;;;;;;;;;;;8.10;99.90;;;;;;4998255;28;19913;-96
2023/03/29 06:00:38;;;;;;;;;;;8.10;99.90;;;;;;4990275;28;19909;-96
2023/03/29 06:03:15;;;;;;;;;;;8.10;99.90;;;;;;5007633;28;20386;-96
2023/03/29 06:05:40;;;;;;;;;;;8.10;99.90;;;;;;5001005;28;19906;-96
2023/03/29 06:08:08;;;;;;;;;;;8.10;99.90;;;;;;4999735;28;19921;-95
2023/03/29 06:10:59;;;;;;;;;;;8.10;99.90;;;;;;5015230;28;19945;-94
2023/03/29 06:13:32;;;;;;;;;;;8.10;99.90;;;;;;5030435;28;19904;-94
2023/03/29 06:15:58;;;;;;;;;;;8.10;99.90;;;;;;5005670;28;19897;-96
2023/03/29 06:18:26;;;;;;;;;;;8.20;99.90;;;;;;5017301;28;19917;-96
2023/03/29 06:20:52;;;;;;;;;;;8.20;99.90;;;;;;5024493;28;19921;-96
2023/03/29 06:23:21;;;;;;;;;;;8.20;99.90;;;;;;5000230;28;20309;-93
2023/03/29 06:25:50;;;;;;;;;;;8.20;99.90;;;;;;5010938;28;19978;-96
2023/03/29 06:28:18;;;;;;;;;;;8.20;99.90;;;;;;4993396;28;19913;-95
2023/03/29 06:30:46;;;;;;;;;;;8.20;99.90;;;;;;5002344;28;19909;-95
2023/03/29 06:33:12;;;;;;;;;;;8.20;99.90;;;;;;4979691;28;19921;-95
2023/03/29 06:35:40;;;;;;;;;;;8.20;99.90;;;;;;4987673;28;20284;-95
2023/03/29 06:38:13;;;;;;;;;;;8.20;99.90;;;;;;4995854;28;19910;-94
2023/03/29 06:41:02;;;;;;;;;;;8.20;99.90;;;;;;4997774;28;19936;-93
2023/03/29 06:43:28;;;;;;;;;;;8.30;99.90;;;;;;4979280;28;19920;-92
2023/03/29 06:45:56;;;;;;;;;;;8.30;99.90;;;;;;4997469;28;19926;-94
2023/03/29 06:48:22;;;;;;;;;;;8.30;99.90;;;;;;5017441;28;20357;-94
2023/03/29 06:51:01;;;;;;;;;;;;;;;;;;;;;
2023/03/29 06:53:27;;;;;;;;;;;8.40;99.90;;;;;;5016632;28;19916;-94
2023/03/29 06:55:55;;;;;;;;;;;8.40;99.90;;;;;;4993587;28;20345;-94
2023/03/29 06:58:23;;;;;;;;;;;8.40;99.90;;;;;;4982024;28;19914;-95
2023/03/29 07:00:52;;;;;;;;;;;8.40;99.90;;;;;;4983177;28;19918;-94
2023/03/29 07:03:22;;;;;;;;;;;8.50;99.90;;;;;;4991131;28;20401;-92
2023/03/29 07:05:50;;;;;;;;;;;8.40;99.90;;;;;;4999509;28;20012;-93
2023/03/29 07:08:17;;;;;;;;;;;8.50;99.90;;;;;;5007003;28;19913;-92
2023/03/29 07:10:46;;;;;;;;;;;8.50;99.90;;;;;;5020159;28;19917;-93
2023/03/29 07:13:15;;;;;;;;;;;8.50;99.90;;;;;;4996456;28;19943;-93
2023/03/29 07:15:41;;;;;;;;;;;8.50;99.90;;;;;;4988344;28;19910;-92
2023/03/29 07:18:07;;;;;;;;;;;8.50;99.90;;;;;;4992820;28;19917;-93
2023/03/29 07:20:33;;;;;;;;;;;8.50;99.90;;;;;;4996111;28;19914;-93
2023/03/29 07:22:59;;;;;;;;;;;8.60;99.90;;;;;;5008457;28;20332;-93
2023/03/29 07:25:26;;;;;;;;;;;8.60;99.90;;;;;;4979199;28;19925;-94
2023/03/29 07:27:52;;;;;;;;;;;8.50;99.90;;;;;;4975062;28;20401;-93
2023/03/29 07:30:22;;;;;;;;;;;8.60;99.90;;;;;;4977340;28;19918;-94
2023/03/29 07:32:51;;;;;;;;;;;8.60;99.90;;;;;;4988012;28;20013;-96
2023/03/29 07:35:17;;;;;;;;;;;8.60;99.90;;;;;;4995371;28;19945;-92
2023/03/29 07:37:45;;;;;;;;;;;8.70;99.90;;;;;;5010733;28;19916;-93
2023/03/29 07:40:14;;;;;;;;;;;8.90;99.90;;;;;;4979005;28;19918;-92
2023/03/29 07:42:43;;;;;;;;;;;8.80;99.90;;;;;;4990976;28;19917;-92
2023/03/29 07:45:09;;;;;;;;;;;8.80;99.90;;;;;;5000534;28;19918;-94
2023/03/29 07:47:37;;;;;;;;;;;8.80;99.90;;;;;;4997543;28;19917;-93
2023/03/29 07:50:06;;;;;;;;;;;8.90;99.90;;;;;;5003332;28;19933;-95
2023/03/29 07:52:32;;;;;;;;;;;9.00;99.90;;;;;;4990318;28;19910;-94
2023/03/29 07:54:58;;;;;;;;;;;9.00;99.90;;;;;;4984060;28;20001;-94
2023/03/29 07:57:24;;;;;;;;;;;9.10;99.90;;;;;;4988910;28;20349;-93
2023/03/29 07:59:54;;;;;;;;;;;9.00;99.90;;;;;;5015627;28;19913;-94
2023/03/29 08:02:25;;;;;;;;;;;9.10;99.90;;;;;;4981894;28;20004;-93
2023/03/29 08:04:55;;;;;;;;;;;9.20;99.90;;;;;;5000636;28;19913;-94
2023/03/29 08:07:23;;;;;;;;;;;9.20;99.90;;;;;;5015027;28;19909;-94
2023/03/29 08:09:49;;;;;;;;;;;9.30;99.90;;;;;;5020022;28;19921;-93
2023/03/29 08:12:15;;;;;;;;;;;9.30;99.90;;;;;;5013261;28;19909;-91
2023/03/29 08:14:41;;;;;;;;;;;9.30;99.90;;;;;;5016405;28;19968;-92
2023/03/29 08:17:06;;;;;;;;;;;9.30;99.90;;;;;;5017830;28;19909;-94
2023/03/29 08:19:38;;;;;;;;;;;9.30;99.90;;;;;;5013145;28;19909;-94
2023/03/29 08:22:03;;;;;;;;;;;9.40;99.90;;;;;;5014212;28;19967;-93
2023/03/29 08:24:29;;;;;;;;;;;9.40;99.90;;;;;;5005614;28;19898;-93
2023/03/29 08:27:02;;;;;;;;;;;9.50;99.90;;;;;;5008955;28;19972;-95
2023/03/29 08:29:29;;;;;;;;;;;9.50;99.90;;;;;;5023951;28;19910;-95
2023/03/29 08:31:59;;;;;;;;;;;9.60;99.90;;;;;;5018409;28;19979;-92
2023/03/29 08:34:25;;;;;;;;;;;9.60;99.90;;;;;;5015050;28;19909;-94
2023/03/29 08:36:51;;;;;;;;;;;9.70;99.90;;;;;;5002114;28;19946;-92
2023/03/29 08:39:19;;;;;;;;;;;9.70;99.90;;;;;;5033668;28;20428;-94
2023/03/29 08:42:15;;;;;;;;;;;9.80;99.90;;;;;;5010273;28;19952;-93
2023/03/29 08:44:59;;;;;;;;;;;9.80;99.90;;;;;;5014592;28;19919;-93
2023/03/29 08:47:43;;;;;;;;;;;9.90;99.90;;;;;;5014273;28;19956;-93
2023/03/29 08:50:10;;;;;;;;;;;9.90;99.90;;;;;;5021368;28;19909;-93
2023/03/29 08:52:41;;;;;;;;;;;10.00;99.90;;;;;;4990270;28;19922;-92
2023/03/29 08:55:12;;;;;;;;;;;10.10;99.90;;;;;;5010410;28;19953;-92
2023/03/29 08:57:46;;;;;;;;;;;10.20;99.90;;;;;;5002855;28;19988;-92
2023/03/29 09:00:30;;;;;;;;;;;10.20;99.90;;;;;;5010543;28;19909;-95
2023/03/29 09:02:57;;;;;;;;;;;10.30;99.90;;;;;;5010060;28;19910;-95
2023/03/29 09:05:27;;;;;;;;;;;10.40;99.90;;;;;;5009397;28;19941;-93
2023/03/29 09:07:53;;;;;;;;;;;10.50;99.90;;;;;;5017067;28;19921;-94
2023/03/29 09:10:20;;;;;;;;;;;10.50;99.90;;;;;;4981586;28;19910;-96
2023/03/29 09:13:04;;;;;;;;;;;10.60;99.90;;;;;;5003656;28;19909;-92
2023/03/29 09:15:34;;;;;;;;;;;10.60;99.90;;;;;;4986394;28;19910;-92
2023/03/29 09:18:03;;;;;;;;;;;10.70;99.90;;;;;;4998812;28;19917;-96
2023/03/29 09:20:32;;;;;;;;;;;10.70;99.90;;;;;;4998827;28;19920;-95
2023/03/29 09:23:19;;;;;;;;;;;10.80;99.90;;;;;;5009194;28;19913;-95
2023/03/29 09:25:52;;;;;;;;;;;10.80;99.90;;;;;;5020810;28;19984;-94
2023/03/29 09:28:33;;;;;;;;;;;10.80;99.90;;;;;;5015964;28;19961;-95
2023/03/29 09:33:42;;;;;;;;;;;10.90;99.90;;;;;;5130147;23;19952;-94
2023/03/29 09:36:20;;;;;;;;;;;11.00;99.90;;;;;;5117034;23;19926;-95
2023/03/29 09:38:54;;;;;;;;;;;11.00;99.90;;;;;;5028692;28;19965;-96
2023/03/29 09:41:26;;;;;;;;;;;11.00;99.90;;;;;;5009208;28;19914;-95
2023/03/29 09:43:53;;;;;;;;;;;11.00;99.90;;;;;;4997505;28;19921;-94
2023/03/29 09:46:37;;;;;;;;;;;11.10;99.90;;;;;;4996762;28;19906;-94
2023/03/29 09:49:04;;;;;;;;;;;11.10;99.90;;;;;;4999205;28;19917;-94
2023/03/29 09:51:31;;;;;;;;;;;11.10;99.90;;;;;;5001247;28;20001;-94
2023/03/29 09:53:59;;;;;;;;;;;11.10;99.90;;;;;;4996052;28;20452;-95
2023/03/29 09:56:26;;;;;;;;;;;11.20;99.90;;;;;;4985108;28;19913;-96
2023/03/29 09:58:54;;;;;;;;;;;11.20;99.90;;;;;;4993023;28;19918;-95
2023/03/29 10:01:20;;;;;;;;;;;11.30;99.90;;;;;;4993472;28;19910;-93
2023/03/29 10:03:52;;;;;;;;;;;11.30;99.90;;;;;;4987313;28;20009;-96
2023/03/29 10:06:19;;;;;;;;;;;11.40;99.90;;;;;;4997096;28;20396;-93
2023/03/29 10:08:57;;;;;;;;;;;11.50;99.90;;;;;;4996075;28;19917;-96
2023/03/29 10:11:34;;;;;;;;;;;11.50;99.90;;;;;;5007642;28;19909;-92
2023/03/29 10:14:03;;;;;;;;;;;11.60;99.90;;;;;;5013332;28;19921;-94
2023/03/29 10:16:36;;;;;;;;;;;11.60;99.90;;;;;;4990444;28;19909;-92
2023/03/29 10:19:25;;;;;;;;;;;11.70;99.90;;;;;;4985981;28;19921;-95
2023/03/29 10:21:52;;;;;;;;;;;11.70;99.90;;;;;;4985153;28;19910;-94
2023/03/29 10:24:20;;;;;;;;;;;11.70;99.90;;;;;;4981611;28;19910;-93
2023/03/29 10:26:50;;;;;;;;;;;11.80;99.90;;;;;;5011202;28;20004;-92
2023/03/29 10:29:16;;;;;;;;;;;11.90;99.90;;;;;;4978528;28;19913;-93
2023/03/29 10:31:42;;;;;;;;;;;11.90;99.90;;;;;;4995217;28;20298;-93
2023/03/29 10:34:12;;;;;;;;;;;12.00;99.90;;;;;;4997390;28;20389;-94
2023/03/29 10:36:40;;;;;;;;;;;12.00;99.90;;;;;;4985514;28;19980;-92
2023/03/29 10:39:07;;;;;;;;;;;12.00;99.90;;;;;;4995456;28;19910;-94
2023/03/29 10:41:33;;;;;;;;;;;12.10;99.90;;;;;;4999437;28;20342;-92
2023/03/29 10:43:59;;;;;;;;;;;12.10;99.90;;;;;;4998387;28;20447;-94
2023/03/29 10:46:35;;;;;;;;;;;12.10;99.90;;;;;;4997889;28;19918;-93
2023/03/29 10:49:04;;;;;;;;;;;12.20;99.90;;;;;;4991010;28;20819;-94
2023/03/29 10:51:31;;;;;;;;;;;12.20;99.90;;;;;;4993568;28;19910;-93
2023/03/29 10:53:59;;;;;;;;;;;12.20;99.90;;;;;;4993479;28;19916;-93
2023/03/29 10:56:43;;;;;;;;;;;12.20;99.90;;;;;;5005966;28;20353;-93
2023/03/29 10:59:28;;;;;;;;;;;12.20;99.90;;;;;;4988309;28;19910;-93
2023/03/29 11:01:57;;;;;;;;;;;12.20;99.90;;;;;;4969916;28;19918;-94
2023/03/29 11:04:37;;;;;;;;;;;12.30;99.90;;;;;;4988480;28;19910;-93
2023/03/29 11:07:20;;;;;;;;;;;12.30;99.90;;;;;;4991574;28;20011;-93
2023/03/29 11:09:46;;;;;;;;;;;12.30;99.90;;;;;;5016646;28;19917;-93
2023/03/29 11:12:22;;;;;;;;;;;12.40;99.90;;;;;;4990965;28;19910;-94
2023/03/29 11:14:54;;;;;;;;;;;12.40;99.90;;;;;;5014654;28;19913;-93
2023/03/29 11:17:32;;;;;;;;;;;12.40;99.90;;;;;;4982997;28;19910;-94
2023/03/29 11:20:16;;;;;;;;;;;12.40;99.90;;;;;;4984357;28;19960;-93
2023/03/29 11:22:55;;;;;;;;;;;12.40;99.90;;;;;;4990155;28;19917;-94
2023/03/29 11:25:20;;;;;;;;;;;12.40;99.90;;;;;;4991455;28;19917;-90
2023/03/29 11:27:50;;;;;;;;;;;12.50;99.90;;;;;;5008960;28;19917;-93
2023/03/29 11:30:28;;;;;;;;;;;12.50;99.90;;;;;;4994969;28;19913;-92
2023/03/29 11:33:02;;;;;;;;;;;12.50;99.90;;;;;;4996088;28;19910;-95
2023/03/29 11:35:34;;;;;;;;;;;12.50;99.90;;;;;;4993571;28;19913;-95
2023/03/29 11:37:59;;;;;;;;;;;12.50;99.90;;;;;;4988400;28;20219;-92
2023/03/29 11:40:35;;;;;;;;;;;12.50;99.90;;;;;;4999460;28;19933;-94
2023/03/29 11:43:06;;;;;;;;;;;12.50;99.90;;;;;;4995253;28;19910;-94
2023/03/29 11:45:42;;;;;;;;;;;12.50;99.90;;;;;;4997130;28;19929;-93
2023/03/29 11:48:20;;;;;;;;;;;12.50;99.90;;;;;;5011127;28;20000;-94
2023/03/29 11:51:15;;;;;;;;;;;;;;;;;;;;;
2023/03/29 11:54:01;;;;;;;;;;;12.60;99.90;;;;;;5024379;23;19933;-90
2023/03/29 12:02:46;;;;;;;;;;;12.50;99.90;;;;;;4980459;28;19916;-90
2023/03/29 12:05:23;;;;;;;;;;;12.50;99.90;;;;;;5001425;28;19913;-91
2023/03/29 12:07:55;;;;;;;;;;;12.50;99.90;;;;;;4989981;28;19971;-91
2023/03/29 12:10:30;;;;;;;;;;;12.50;99.90;;;;;;5001561;28;20441;-91
2023/03/29 12:13:09;;;;;;;;;;;12.60;99.90;;;;;;5005833;28;19910;-91
2023/03/29 12:15:41;;;;;;;;;;;12.70;99.90;;;;;;5007277;28;20274;-92
2023/03/29 12:18:07;;;;;;;;;;;12.70;99.90;;;;;;5000375;28;19919;-90
2023/03/29 12:20:35;;;;;;;;;;;12.70;99.90;;;;;;4995839;28;19949;-89
2023/03/29 12:23:03;;;;;;;;;;;12.70;99.90;;;;;;5018213;23;21461;-93
2023/03/29 12:25:56;;;;;;;;;;;12.70;99.90;;;;;;5006430;28;19932;-94
2023/03/29 12:28:49;;;;;;;;;;;12.80;99.90;;;;;;4998381;28;20260;-94
2023/03/29 12:31:30;;;;;;;;;;;12.80;99.90;;;;;;4997164;28;19917;-93
2023/03/29 12:33:55;;;;;;;;;;;12.90;99.90;;;;;;4983394;28;19921;-94
2023/03/29 12:36:30;;;;;;;;;;;12.90;99.90;;;;;;5014557;28;19910;-92
2023/03/29 12:38:56;;;;;;;;;;;13.00;99.90;;;;;;4999544;28;19913;-93
2023/03/29 12:41:23;;;;;;;;;;;13.00;99.90;;;;;;5005441;28;20028;-94
2023/03/29 12:43:49;;;;;;;;;;;13.00;99.90;;;;;;5023127;28;19946;-93
2023/03/29 12:46:44;;;;;;;;;;;13.00;99.90;;;;;;4998313;28;20393;-94
2023/03/29 12:49:14;;;;;;;;;;;13.00;99.90;;;;;;4993001;28;19917;-93
2023/03/29 12:51:40;;;;;;;;;;;13.00;99.90;;;;;;5036019;28;19904;-91
2023/03/29 12:54:12;;;;;;;;;;;13.00;99.90;;;;;;5026762;28;19920;-92
2023/03/29 12:56:57;;;;;;;;;;;13.00;99.90;;;;;;5030122;28;19898;-92
2023/03/29 12:59:25;;;;;;;;;;;13.00;99.90;;;;;;5018305;28;19920;-93
2023/03/29 13:01:59;;;;;;;;;;;13.00;99.90;;;;;;5050602;28;19945;-91
2023/03/29 13:05:04;;;;;;;;;;;13.00;99.90;;;;;;5020183;28;19913;-90
2023/03/29 13:07:31;;;;;;;;;;;13.10;99.90;;;;;;4983416;28;20265;-91
2023/03/29 13:09:58;;;;;;;;;;;13.20;99.90;;;;;;4984905;28;19930;-91
2023/03/29 13:12:53;;;;;;;;;;;13.10;99.90;;;;;;4987571;28;19913;-91
2023/03/29 13:15:23;;;;;;;;;;;13.10;99.90;;;;;;5001896;28;19913;-92
2023/03/29 13:20:44;;;;;;;;;;;13.20;99.90;;;;;;5393892;22;19925;-92
2023/03/29 13:23:16;;;;;;;;;;;13.20;99.90;;;;;;5014826;28;19940;-94
2023/03/29 13:26:06;;;;;;;;;;;13.30;99.90;;;;;;5019239;28;19922;-91
2023/03/29 13:28:32;;;;;;;;;;;13.40;99.90;;;;;;5019699;28;19968;-94
2023/03/29 13:30:58;;;;;;;;;;;13.30;99.90;;;;;;5015715;28;19917;-93
2023/03/29 13:33:37;;;;;;;;;;;13.40;99.90;;;;;;5015793;28;19909;-96
2023/03/29 13:36:08;;;;;;;;;;;13.40;99.90;;;;;;5012660;28;19935;-91
2023/03/29 13:38:51;;;;;;;;;;;13.40;99.90;;;;;;5006245;28;20415;-92
2023/03/29 13:41:35;;;;;;;;;;;13.50;99.90;;;;;;5009264;28;19910;-93
2023/03/29 13:44:21;;;;;;;;;;;13.50;99.90;;;;;;5013090;28;19922;-95
2023/03/29 13:46:47;;;;;;;;;;;13.60;99.90;;;;;;5009924;28;19967;-92
2023/03/29 13:49:39;;;;;;;;;;;13.70;99.90;;;;;;5009118;28;19900;-94
2023/03/29 13:52:38;;;;;;;;;;;13.70;99.90;;;;;;5025401;28;23081;-94
2023/03/29 13:55:03;;;;;;;;;;;13.60;99.90;;;;;;5011367;23;19936;-91
2023/03/29 13:57:37;;;;;;;;;;;13.70;99.90;;;;;;5015084;28;19913;-92
2023/03/29 14:03:24;;;;;;;;;;;;;;;;;;;;;
2023/03/29 14:05:55;;;;;;;;;;;13.80;99.90;;;;;;5067614;23;20015;-94
2023/03/29 14:08:20;;;;;;;;;;;13.90;99.90;;;;;;5008470;28;19971;-95
2023/03/29 14:10:46;;;;;;;;;;;13.90;99.90;;;;;;5014407;28;19913;-94
2023/03/29 14:13:13;;;;;;;;;;;13.90;99.90;;;;;;5027124;23;19964;-93
2023/03/29 14:15:50;;;;;;;;;;;13.90;99.90;;;;;;4999255;28;19917;-93
2023/03/29 14:18:17;;;;;;;;;;;13.90;99.90;;;;;;4999138;28;19920;-94
2023/03/29 14:20:49;;;;;;;;;;;14.00;99.90;;;;;;5003581;28;19910;-96
2023/03/29 14:29:37;;;;;;;;;;;14.00;99.90;;;;;;4921574;28;20001;-96
2023/03/29 14:32:15;;;;;;;;;;;14.10;99.90;;;;;;5005929;23;19930;-93
2023/03/29 14:34:48;;;;;;;;;;;14.10;99.90;;;;;;5001809;28;19984;-93
2023/03/29 14:37:21;;;;;;;;;;;14.10;99.90;;;;;;5010035;28;19914;-94
2023/03/29 14:39:46;;;;;;;;;;;14.10;99.90;;;;;;4996275;28;19913;-93
2023/03/29 14:42:19;;;;;;;;;;;14.10;99.90;;;;;;4991854;28;19918;-92
2023/03/29 14:44:46;;;;;;;;;;;14.20;99.90;;;;;;4992789;28;19929;-93
2023/03/29 14:47:33;;;;;;;;;;;14.20;99.90;;;;;;4986213;28;19949;-93
2023/03/29 14:50:02;;;;;;;;;;;14.20;99.90;;;;;;4978828;28;19920;-94
2023/03/29 14:52:36;;;;;;;;;;;14.30;99.90;;;;;;4998961;28;19921;-91
2023/03/29 14:55:02;;;;;;;;;;;14.30;99.90;;;;;;4988459;28;19955;-94
2023/03/29 14:57:34;;;;;;;;;;;14.40;99.90;;;;;;4986837;28;20389;-95
2023/03/29 15:00:13;;;;;;;;;;;14.40;99.90;;;;;;4991354;28;19909;-94
2023/03/29 15:02:47;;;;;;;;;;;14.40;99.90;;;;;;4992323;28;20013;-90
2023/03/29 15:05:59;;;;;;;;;;;14.40;99.90;;;;;;4997626;28;20282;-93
2023/03/29 15:08:30;;;;;;;;;;;14.50;99.90;;;;;;5030879;23;19926;-91
2023/03/29 15:10:56;;;;;;;;;;;14.60;99.90;;;;;;4997629;28;19914;-89
2023/03/29 15:13:23;;;;;;;;;;;14.60;99.90;;;;;;4997300;28;19913;-90
2023/03/29 15:15:51;;;;;;;;;;;14.60;99.90;;;;;;5001327;28;19910;-91
2023/03/29 15:18:17;;;;;;;;;;;14.70;99.90;;;;;;4999248;28;19914;-91
2023/03/29 15:20:43;;;;;;;;;;;14.70;99.90;;;;;;5001216;28;20380;-91
2023/03/29 15:23:15;;;;;;;;;;;14.80;99.90;;;;;;4984572;28;19976;-90
2023/03/29 15:25:55;;;;;;;;;;;14.80;99.90;;;;;;5000110;28;19921;-88
2023/03/29 15:28:27;;;;;;;;;;;14.90;99.90;;;;;;5000974;28;19914;-88
2023/03/29 15:31:02;;;;;;;;;;;14.90;99.90;;;;;;4996010;28;20027;-89
2023/03/29 15:33:32;;;;;;;;;;;14.90;99.90;;;;;;4996895;28;19917;-89
2023/03/29 15:35:59;;;;;;;;;;;15.00;99.90;;;;;;4999586;28;19914;-90
2023/03/29 15:38:25;;;;;;;;;;;15.10;99.90;;;;;;4999403;28;20382;-89
2023/03/29 15:40:50;;;;;;;;;;;15.10;99.90;;;;;;4999953;28;19976;-89
2023/03/29 15:43:18;;;;;;;;;;;15.10;99.90;;;;;;4996366;28;19914;-89